sensor_id;sensor_type;location;lat;lon;timestamp;temperature;humidity
4215;DHT22;2121;48.062;7.850;2023-02-24T00:01:55;3.50;99.90
4215;DHT22;2121;48.062;7.850;2023-02-24T00:04:28;3.50;99.90
4215;DHT22;2121;48.062;7.850;2023-02-24T00:07:04;3.40;99.90
4215;DHT22;2121;48.062;7.850;2023-02-24T00:09:35;3.40;99.90
4215;DHT22;2121;48.062;7.850;2023-02-24T00:12:05;3.40;99.90
4215;DHT22;2121;48.062;7.850;2023-02-24T00:14:37;3.40;99.90
4215;DHT22;2121;48.062;7.850;2023-02-24T00:17:04;3.50;99.90
4215;DHT22;2121;48.062;7.850;2023-02-24T00:19:33;3.40;99.90
4215;DHT22;2121;48.062;7.850;2023-02-24T00:22:00;3.40;99.90
4215;DHT22;2121;48.062;7.850;2023-02-24T00:24:28;3.40;99.90
4215;DHT22;2121;48.062;7.850;2023-02-24T00:26:56;3.40;99.90
4215;DHT22;2121;48.062;7.850;2023-02-24T00:29:25;3.40;99.90
4215;DHT22;2121;48.062;7.850;2023-02-24T00:31:54;3.50;99.90
4215;DHT22;2121;48.062;7.850;2023-02-24T00:34:32;3.30;99.90
4215;DHT22;2121;48.062;7.850;2023-02-24T00:37:00;3.20;99.90
4215;DHT22;2121;48.062;7.850;2023-02-24T00:39:28;3.10;99.90
4215;DHT22;2121;48.062;7.850;2023-02-24T00:42:00;3.00;99.90
4215;DHT22;2121;48.062;7.850;2023-02-24T00:44:32;3.00;99.90
4215;DHT22;2121;48.062;7.850;2023-02-24T00:47:00;3.00;99.90
4215;DHT22;2121;48.062;7.850;2023-02-24T00:49:27;3.00;99.90
4215;DHT22;2121;48.062;7.850;2023-02-24T00:51:54;3.00;99.90
4215;DHT22;2121;48.062;7.850;2023-02-24T00:54:20;3.00;99.90
4215;DHT22;2121;48.062;7.850;2023-02-24T00:56:47;3.10;99.90
4215;DHT22;2121;48.062;7.850;2023-02-24T00:59:15;3.20;99.90
4215;DHT22;2121;48.062;7.850;2023-02-24T01:01:43;3.20;99.90
4215;DHT22;2121;48.062;7.850;2023-02-24T01:04:11;3.10;99.90
4215;DHT22;2121;48.062;7.850;2023-02-24T01:06:49;3.10;99.90
4215;DHT22;2121;48.062;7.850;2023-02-24T01:09:18;3.00;99.90
4215;DHT22;2121;48.062;7.850;2023-02-24T01:11:47;3.00;99.90
4215;DHT22;2121;48.062;7.850;2023-02-24T01:14:34;3.00;99.90
4215;DHT22;2121;48.062;7.850;2023-02-24T01:17:00;2.80;99.90
4215;DHT22;2121;48.062;7.850;2023-02-24T01:19:29;2.70;99.90
4215;DHT22;2121;48.062;7.850;2023-02-24T01:21:57;2.60;99.90
4215;DHT22;2121;48.062;7.850;2023-02-24T01:24:35;2.50;99.90
4215;DHT22;2121;48.062;7.850;2023-02-24T01:27:02;2.50;99.90
4215;DHT22;2121;48.062;7.850;2023-02-24T01:29:30;2.70;99.90
4215;DHT22;2121;48.062;7.850;2023-02-24T01:31:56;2.80;99.90
4215;DHT22;2121;48.062;7.850;2023-02-24T01:34:26;2.70;99.90
4215;DHT22;2121;48.062;7.850;2023-02-24T01:36:52;2.80;99.90
4215;DHT22;2121;48.062;7.850;2023-02-24T01:39:19;2.60;99.90
4215;DHT22;2121;48.062;7.850;2023-02-24T01:41:47;2.70;99.90
4215;DHT22;2121;48.062;7.850;2023-02-24T01:46:48;2.50;99.90
4215;DHT22;2121;48.062;7.850;2023-02-24T01:49:50;2.50;99.90
4215;DHT22;2121;48.062;7.850;2023-02-24T01:52:18;2.50;99.90
4215;DHT22;2121;48.062;7.850;2023-02-24T01:54:57;2.50;99.90
4215;DHT22;2121;48.062;7.850;2023-02-24T01:57:32;2.50;99.90
4215;DHT22;2121;48.062;7.850;2023-02-24T02:00:03;2.50;99.90
4215;DHT22;2121;48.062;7.850;2023-02-24T02:02:37;2.50;99.90
4215;DHT22;2121;48.062;7.850;2023-02-24T02:05:08;2.70;99.90
4215;DHT22;2121;48.062;7.850;2023-02-24T02:07:35;2.70;99.90
4215;DHT22;2121;48.062;7.850;2023-02-24T02:10:05;2.80;99.90
4215;DHT22;2121;48.062;7.850;2023-02-24T02:12:34;2.80;99.90
4215;DHT22;2121;48.062;7.850;2023-02-24T02:15:13;3.10;99.90
4215;DHT22;2121;48.062;7.850;2023-02-24T02:18:02;3.20;99.90
4215;DHT22;2121;48.062;7.850;2023-02-24T02:21:19;3.30;99.90
4215;DHT22;2121;48.062;7.850;2023-02-24T02:24:28;3.50;99.90
4215;DHT22;2121;48.062;7.850;2023-02-24T02:30:43;3.80;99.90
4215;DHT22;2121;48.062;7.850;2023-02-24T02:44:52;3.90;99.90
4215;DHT22;2121;48.062;7.850;2023-02-24T02:47:36;4.10;99.90
4215;DHT22;2121;48.062;7.850;2023-02-24T02:52:49;4.10;99.90
4215;DHT22;2121;48.062;7.850;2023-02-24T02:55:24;4.20;99.90
4215;DHT22;2121;48.062;7.850;2023-02-24T02:57:53;4.30;99.90
4215;DHT22;2121;48.062;7.850;2023-02-24T03:00:25;4.40;99.90
4215;DHT22;2121;48.062;7.850;2023-02-24T03:02:57;4.50;99.90
4215;DHT22;2121;48.062;7.850;2023-02-24T03:05:30;4.60;99.90
4215;DHT22;2121;48.062;7.850;2023-02-24T03:08:03;4.70;99.90
4215;DHT22;2121;48.062;7.850;2023-02-24T03:10:31;4.90;99.90
4215;DHT22;2121;48.062;7.850;2023-02-24T03:13:00;5.00;99.90
4215;DHT22;2121;48.062;7.850;2023-02-24T03:15:30;5.00;99.90
4215;DHT22;2121;48.062;7.850;2023-02-24T03:18:06;5.10;99.90
4215;DHT22;2121;48.062;7.850;2023-02-24T03:20:43;5.00;99.90
4215;DHT22;2121;48.062;7.850;2023-02-24T03:23:18;5.10;99.90
4215;DHT22;2121;48.062;7.850;2023-02-24T03:25:55;5.10;99.90
4215;DHT22;2121;48.062;7.850;2023-02-24T03:28:30;5.10;99.90
4215;DHT22;2121;48.062;7.850;2023-02-24T03:31:24;5.00;99.90
4215;DHT22;2121;48.062;7.850;2023-02-24T03:34:12;5.10;99.90
4215;DHT22;2121;48.062;7.850;2023-02-24T03:36:42;5.00;99.90
4215;DHT22;2121;48.062;7.850;2023-02-24T03:39:09;5.10;99.90
4215;DHT22;2121;48.062;7.850;2023-02-24T03:41:52;5.00;99.90
4215;DHT22;2121;48.062;7.850;2023-02-24T03:44:27;5.10;99.90
4215;DHT22;2121;48.062;7.850;2023-02-24T03:46:53;5.20;99.90
4215;DHT22;2121;48.062;7.850;2023-02-24T03:49:21;5.30;99.90
4215;DHT22;2121;48.062;7.850;2023-02-24T03:55:33;5.40;99.90
4215;DHT22;2121;48.062;7.850;2023-02-24T04:04:06;5.50;99.90
4215;DHT22;2121;48.062;7.850;2023-02-24T04:06:44;5.60;99.90
4215;DHT22;2121;48.062;7.850;2023-02-24T04:12:03;5.60;99.90
4215;DHT22;2121;48.062;7.850;2023-02-24T04:15:10;5.70;99.90
4215;DHT22;2121;48.062;7.850;2023-02-24T04:17:55;5.80;99.90
4215;DHT22;2121;48.062;7.850;2023-02-24T04:20:26;5.90;99.90
4215;DHT22;2121;48.062;7.850;2023-02-24T04:23:19;5.80;99.90
4215;DHT22;2121;48.062;7.850;2023-02-24T04:25:46;5.90;99.90
4215;DHT22;2121;48.062;7.850;2023-02-24T04:28:14;6.00;99.90
4215;DHT22;2121;48.062;7.850;2023-02-24T04:30:43;5.90;99.90
4215;DHT22;2121;48.062;7.850;2023-02-24T04:33:15;5.80;99.90
4215;DHT22;2121;48.062;7.850;2023-02-24T04:35:44;5.70;99.90
4215;DHT22;2121;48.062;7.850;2023-02-24T04:38:10;5.80;99.90
4215;DHT22;2121;48.062;7.850;2023-02-24T04:40:36;5.90;99.90
4215;DHT22;2121;48.062;7.850;2023-02-24T04:43:05;6.00;99.90
4215;DHT22;2121;48.062;7.850;2023-02-24T04:45:32;6.20;99.90
4215;DHT22;2121;48.062;7.850;2023-02-24T04:47:59;6.20;99.90
4215;DHT22;2121;48.062;7.850;2023-02-24T04:50:34;6.20;99.90
4215;DHT22;2121;48.062;7.850;2023-02-24T04:55:40;6.20;99.90
4215;DHT22;2121;48.062;7.850;2023-02-24T04:58:12;6.10;99.90
4215;DHT22;2121;48.062;7.850;2023-02-24T05:00:44;6.20;99.90
4215;DHT22;2121;48.062;7.850;2023-02-24T05:03:14;6.10;99.90
4215;DHT22;2121;48.062;7.850;2023-02-24T05:05:51;6.20;99.90
4215;DHT22;2121;48.062;7.850;2023-02-24T05:08:21;6.10;99.90
4215;DHT22;2121;48.062;7.850;2023-02-24T05:10:48;6.20;99.90
4215;DHT22;2121;48.062;7.850;2023-02-24T05:13:27;6.20;99.90
4215;DHT22;2121;48.062;7.850;2023-02-24T05:16:03;6.10;99.90
4215;DHT22;2121;48.062;7.850;2023-02-24T05:18:33;6.00;99.90
4215;DHT22;2121;48.062;7.850;2023-02-24T05:21:06;6.00;99.90
4215;DHT22;2121;48.062;7.850;2023-02-24T05:23:52;6.00;99.90
4215;DHT22;2121;48.062;7.850;2023-02-24T05:26:20;6.10;99.90
4215;DHT22;2121;48.062;7.850;2023-02-24T05:28:48;6.10;99.90
4215;DHT22;2121;48.062;7.850;2023-02-24T05:31:22;6.00;99.90
4215;DHT22;2121;48.062;7.850;2023-02-24T05:33:52;5.90;99.90
4215;DHT22;2121;48.062;7.850;2023-02-24T05:36:19;5.90;99.90
4215;DHT22;2121;48.062;7.850;2023-02-24T05:38:47;5.90;99.90
4215;DHT22;2121;48.062;7.850;2023-02-24T05:41:24;5.90;99.90
4215;DHT22;2121;48.062;7.850;2023-02-24T05:43:58;6.10;99.90
4215;DHT22;2121;48.062;7.850;2023-02-24T05:46:28;6.20;99.90
4215;DHT22;2121;48.062;7.850;2023-02-24T05:49:03;6.20;99.90
4215;DHT22;2121;48.062;7.850;2023-02-24T05:51:37;6.30;99.90
4215;DHT22;2121;48.062;7.850;2023-02-24T05:54:08;6.20;99.90
4215;DHT22;2121;48.062;7.850;2023-02-24T05:56:36;6.10;99.90
4215;DHT22;2121;48.062;7.850;2023-02-24T05:59:06;6.40;99.90
4215;DHT22;2121;48.062;7.850;2023-02-24T06:01:37;6.50;99.90
4215;DHT22;2121;48.062;7.850;2023-02-24T06:04:07;6.50;99.90
4215;DHT22;2121;48.062;7.850;2023-02-24T06:06:40;6.50;99.90
4215;DHT22;2121;48.062;7.850;2023-02-24T06:09:09;6.50;99.90
4215;DHT22;2121;48.062;7.850;2023-02-24T06:11:38;6.50;99.90
4215;DHT22;2121;48.062;7.850;2023-02-24T06:14:11;6.50;99.90
4215;DHT22;2121;48.062;7.850;2023-02-24T06:16:39;6.40;99.90
4215;DHT22;2121;48.062;7.850;2023-02-24T06:19:06;6.30;99.90
4215;DHT22;2121;48.062;7.850;2023-02-24T06:21:34;6.40;99.90
4215;DHT22;2121;48.062;7.850;2023-02-24T06:24:01;6.50;99.90
4215;DHT22;2121;48.062;7.850;2023-02-24T06:26:27;6.50;99.90
4215;DHT22;2121;48.062;7.850;2023-02-24T06:28:58;6.40;99.90
4215;DHT22;2121;48.062;7.850;2023-02-24T06:31:25;6.50;99.90
4215;DHT22;2121;48.062;7.850;2023-02-24T06:33:52;6.30;99.90
4215;DHT22;2121;48.062;7.850;2023-02-24T06:36:19;6.40;99.90
4215;DHT22;2121;48.062;7.850;2023-02-24T06:38:46;6.40;99.90
4215;DHT22;2121;48.062;7.850;2023-02-24T06:41:13;6.40;99.90
4215;DHT22;2121;48.062;7.850;2023-02-24T06:43:42;6.50;99.90
4215;DHT22;2121;48.062;7.850;2023-02-24T06:46:11;6.50;99.90
4215;DHT22;2121;48.062;7.850;2023-02-24T06:48:38;6.60;99.90
4215;DHT22;2121;48.062;7.850;2023-02-24T06:51:06;6.60;99.90
4215;DHT22;2121;48.062;7.850;2023-02-24T06:53:33;6.70;99.90
4215;DHT22;2121;48.062;7.850;2023-02-24T06:56:11;6.70;99.90
4215;DHT22;2121;48.062;7.850;2023-02-24T06:58:46;6.90;99.90
4215;DHT22;2121;48.062;7.850;2023-02-24T07:01:16;6.90;99.90
4215;DHT22;2121;48.062;7.850;2023-02-24T07:03:44;7.00;99.90
4215;DHT22;2121;48.062;7.850;2023-02-24T07:06:33;7.20;99.90
4215;DHT22;2121;48.062;7.850;2023-02-24T07:09:02;7.30;99.90
4215;DHT22;2121;48.062;7.850;2023-02-24T07:11:32;7.30;99.90
4215;DHT22;2121;48.062;7.850;2023-02-24T07:13:58;7.30;99.90
4215;DHT22;2121;48.062;7.850;2023-02-24T07:16:25;7.30;99.90
4215;DHT22;2121;48.062;7.850;2023-02-24T07:18:57;7.20;99.90
4215;DHT22;2121;48.062;7.850;2023-02-24T07:21:28;7.00;99.90
4215;DHT22;2121;48.062;7.850;2023-02-24T07:24:13;6.90;99.90
4215;DHT22;2121;48.062;7.850;2023-02-24T07:26:44;6.60;99.90
4215;DHT22;2121;48.062;7.850;2023-02-24T07:29:16;6.50;99.90
4215;DHT22;2121;48.062;7.850;2023-02-24T07:31:42;6.50;99.90
4215;DHT22;2121;48.062;7.850;2023-02-24T07:34:08;6.50;99.90
4215;DHT22;2121;48.062;7.850;2023-02-24T07:36:34;6.50;99.90
4215;DHT22;2121;48.062;7.850;2023-02-24T07:39:14;6.70;99.90
4215;DHT22;2121;48.062;7.850;2023-02-24T07:41:41;6.70;99.90
4215;DHT22;2121;48.062;7.850;2023-02-24T07:44:10;6.70;99.90
4215;DHT22;2121;48.062;7.850;2023-02-24T07:46:36;6.90;99.90
4215;DHT22;2121;48.062;7.850;2023-02-24T07:49:03;7.10;99.90
4215;DHT22;2121;48.062;7.850;2023-02-24T07:51:29;7.40;99.90
4215;DHT22;2121;48.062;7.850;2023-02-24T07:53:57;7.70;99.90
4215;DHT22;2121;48.062;7.850;2023-02-24T07:56:25;8.00;99.90
4215;DHT22;2121;48.062;7.850;2023-02-24T07:58:56;8.30;99.90
4215;DHT22;2121;48.062;7.850;2023-02-24T08:01:25;8.40;99.90
4215;DHT22;2121;48.062;7.850;2023-02-24T08:03:57;8.50;99.90
4215;DHT22;2121;48.062;7.850;2023-02-24T08:06:31;8.40;99.90
4215;DHT22;2121;48.062;7.850;2023-02-24T08:09:04;8.40;99.90
4215;DHT22;2121;48.062;7.850;2023-02-24T08:11:48;8.30;99.90
4215;DHT22;2121;48.062;7.850;2023-02-24T08:14:26;8.30;99.90
4215;DHT22;2121;48.062;7.850;2023-02-24T08:16:58;8.30;99.90
4215;DHT22;2121;48.062;7.850;2023-02-24T08:19:26;8.20;99.90
4215;DHT22;2121;48.062;7.850;2023-02-24T08:21:58;8.10;99.90
4215;DHT22;2121;48.062;7.850;2023-02-24T08:25:02;8.00;99.90
4215;DHT22;2121;48.062;7.850;2023-02-24T08:27:34;8.10;99.90
4215;DHT22;2121;48.062;7.850;2023-02-24T08:30:05;8.20;99.90
4215;DHT22;2121;48.062;7.850;2023-02-24T08:32:38;8.30;99.90
4215;DHT22;2121;48.062;7.850;2023-02-24T08:35:13;8.30;99.90
4215;DHT22;2121;48.062;7.850;2023-02-24T08:37:46;8.20;99.90
4215;DHT22;2121;48.062;7.850;2023-02-24T08:43:11;8.40;99.90
4215;DHT22;2121;48.062;7.850;2023-02-24T08:48:32;8.60;99.90
4215;DHT22;2121;48.062;7.850;2023-02-24T08:51:15;8.70;99.90
4215;DHT22;2121;48.062;7.850;2023-02-24T08:53:50;8.90;99.90
4215;DHT22;2121;48.062;7.850;2023-02-24T08:56:19;9.10;99.90
4215;DHT22;2121;48.062;7.850;2023-02-24T08:58:54;9.10;99.90
4215;DHT22;2121;48.062;7.850;2023-02-24T09:01:26;9.20;99.90
4215;DHT22;2121;48.062;7.850;2023-02-24T09:04:04;9.10;99.90
4215;DHT22;2121;48.062;7.850;2023-02-24T09:09:04;8.50;99.90
4215;DHT22;2121;48.062;7.850;2023-02-24T09:11:57;8.30;99.90
4215;DHT22;2121;48.062;7.850;2023-02-24T09:14:27;8.30;99.90
4215;DHT22;2121;48.062;7.850;2023-02-24T09:17:02;8.40;99.90
4215;DHT22;2121;48.062;7.850;2023-02-24T09:19:40;8.50;99.90
4215;DHT22;2121;48.062;7.850;2023-02-24T09:22:14;8.50;99.90
4215;DHT22;2121;48.062;7.850;2023-02-24T09:27:50;8.50;99.90
4215;DHT22;2121;48.062;7.850;2023-02-24T09:30:26;8.60;99.90
4215;DHT22;2121;48.062;7.850;2023-02-24T09:33:14;8.90;99.90
4215;DHT22;2121;48.062;7.850;2023-02-24T09:38:20;9.30;99.90
4215;DHT22;2121;48.062;7.850;2023-02-24T09:41:19;9.70;99.90
4215;DHT22;2121;48.062;7.850;2023-02-24T09:43:54;10.30;99.90
4215;DHT22;2121;48.062;7.850;2023-02-24T09:46:24;10.70;99.90
4215;DHT22;2121;48.062;7.850;2023-02-24T09:49:06;11.00;99.90
4215;DHT22;2121;48.062;7.850;2023-02-24T09:51:37;11.00;99.90
4215;DHT22;2121;48.062;7.850;2023-02-24T09:54:14;11.00;99.90
4215;DHT22;2121;48.062;7.850;2023-02-24T09:56:56;11.20;99.90
4215;DHT22;2121;48.062;7.850;2023-02-24T10:03:55;11.40;99.90
4215;DHT22;2121;48.062;7.850;2023-02-24T10:06:19;11.60;99.90
4215;DHT22;2121;48.062;7.850;2023-02-24T10:08:58;12.20;99.90
4215;DHT22;2121;48.062;7.850;2023-02-24T10:11:46;12.80;99.90
4215;DHT22;2121;48.062;7.850;2023-02-24T10:17:16;13.20;99.90
4215;DHT22;2121;48.062;7.850;2023-02-24T10:19:48;13.20;99.90
4215;DHT22;2121;48.062;7.850;2023-02-24T10:25:58;12.10;99.90
4215;DHT22;2121;48.062;7.850;2023-02-24T10:28:54;12.00;99.90
4215;DHT22;2121;48.062;7.850;2023-02-24T10:31:47;11.80;99.90
4215;DHT22;2121;48.062;7.850;2023-02-24T10:34:23;11.50;99.90
4215;DHT22;2121;48.062;7.850;2023-02-24T10:37:13;11.20;99.90
4215;DHT22;2121;48.062;7.850;2023-02-24T10:39:44;10.70;99.90
4215;DHT22;2121;48.062;7.850;2023-02-24T10:42:35;10.60;99.90
4215;DHT22;2121;48.062;7.850;2023-02-24T10:45:15;10.80;99.90
4215;DHT22;2121;48.062;7.850;2023-02-24T10:47:53;10.80;99.90
4215;DHT22;2121;48.062;7.850;2023-02-24T10:50:31;11.00;99.90
4215;DHT22;2121;48.062;7.850;2023-02-24T10:53:13;11.50;99.90
4215;DHT22;2121;48.062;7.850;2023-02-24T10:56:05;11.50;99.90
4215;DHT22;2121;48.062;7.850;2023-02-24T10:59:14;11.60;99.90
4215;DHT22;2121;48.062;7.850;2023-02-24T11:02:14;11.50;99.90
4215;DHT22;2121;48.062;7.850;2023-02-24T11:04:54;11.70;99.90
4215;DHT22;2121;48.062;7.850;2023-02-24T11:07:28;12.00;99.90
4215;DHT22;2121;48.062;7.850;2023-02-24T11:10:21;11.50;99.90
4215;DHT22;2121;48.062;7.850;2023-02-24T11:12:53;11.10;99.90
4215;DHT22;2121;48.062;7.850;2023-02-24T11:15:48;11.00;99.90
4215;DHT22;2121;48.062;7.850;2023-02-24T11:18:37;10.40;99.90
4215;DHT22;2121;48.062;7.850;2023-02-24T11:21:06;10.20;99.90
4215;DHT22;2121;48.062;7.850;2023-02-24T11:23:37;10.10;99.90
4215;DHT22;2121;48.062;7.850;2023-02-24T11:26:21;10.10;99.90
4215;DHT22;2121;48.062;7.850;2023-02-24T11:40:17;11.30;99.90
4215;DHT22;2121;48.062;7.850;2023-02-24T11:43:02;11.10;99.90
4215;DHT22;2121;48.062;7.850;2023-02-24T11:45:39;11.50;99.90
4215;DHT22;2121;48.062;7.850;2023-02-24T11:48:31;11.90;99.90
4215;DHT22;2121;48.062;7.850;2023-02-24T11:54:04;12.20;99.90
4215;DHT22;2121;48.062;7.850;2023-02-24T11:56:51;12.50;99.90
4215;DHT22;2121;48.062;7.850;2023-02-24T12:02:32;12.60;99.90
4215;DHT22;2121;48.062;7.850;2023-02-24T12:05:24;12.30;99.90
4215;DHT22;2121;48.062;7.850;2023-02-24T12:07:53;11.90;99.90
4215;DHT22;2121;48.062;7.850;2023-02-24T12:10:26;11.90;99.90
4215;DHT22;2121;48.062;7.850;2023-02-24T12:15:38;12.50;99.90
4215;DHT22;2121;48.062;7.850;2023-02-24T12:18:21;12.70;99.90
4215;DHT22;2121;48.062;7.850;2023-02-24T12:23:44;13.40;99.90
4215;DHT22;2121;48.062;7.850;2023-02-24T12:26:34;13.70;99.90
4215;DHT22;2121;48.062;7.850;2023-02-24T12:32:08;13.50;99.90
4215;DHT22;2121;48.062;7.850;2023-02-24T12:41:06;12.00;99.90
4215;DHT22;2121;48.062;7.850;2023-02-24T12:43:54;12.40;99.90
4215;DHT22;2121;48.062;7.850;2023-02-24T12:46:42;12.10;99.90
4215;DHT22;2121;48.062;7.850;2023-02-24T12:49:25;12.00;99.90
4215;DHT22;2121;48.062;7.850;2023-02-24T12:55:22;12.70;99.90
4215;DHT22;2121;48.062;7.850;2023-02-24T12:58:09;12.70;99.90
4215;DHT22;2121;48.062;7.850;2023-02-24T13:01:00;12.30;99.90
4215;DHT22;2121;48.062;7.850;2023-02-24T13:04:06;12.10;99.90
4215;DHT22;2121;48.062;7.850;2023-02-24T13:12:36;12.30;99.90
4215;DHT22;2121;48.062;7.850;2023-02-24T13:15:23;12.00;99.90
4215;DHT22;2121;48.062;7.850;2023-02-24T13:17:51;12.20;99.90
4215;DHT22;2121;48.062;7.850;2023-02-24T13:20:31;12.10;99.90
4215;DHT22;2121;48.062;7.850;2023-02-24T13:23:14;12.30;99.90
4215;DHT22;2121;48.062;7.850;2023-02-24T13:25:50;12.70;99.90
4215;DHT22;2121;48.062;7.850;2023-02-24T13:28:37;13.10;99.90
4215;DHT22;2121;48.062;7.850;2023-02-24T13:31:06;13.40;99.90
4215;DHT22;2121;48.062;7.850;2023-02-24T13:33:37;13.60;99.90
4215;DHT22;2121;48.062;7.850;2023-02-24T13:36:31;13.70;99.90
4215;DHT22;2121;48.062;7.850;2023-02-24T13:44:03;13.20;99.90
4215;DHT22;2121;48.062;7.850;2023-02-24T14:02:17;12.90;99.90
4215;DHT22;2121;48.062;7.850;2023-02-24T14:04:53;13.00;99.90
4215;DHT22;2121;48.062;7.850;2023-02-24T14:07:26;12.70;99.90
4215;DHT22;2121;48.062;7.850;2023-02-24T14:10:00;12.50;99.90
4215;DHT22;2121;48.062;7.850;2023-02-24T14:12:33;12.60;99.90
4215;DHT22;2121;48.062;7.850;2023-02-24T14:15:00;12.60;99.90
4215;DHT22;2121;48.062;7.850;2023-02-24T14:17:33;12.40;99.90
4215;DHT22;2121;48.062;7.850;2023-02-24T14:20:07;12.40;99.90
4215;DHT22;2121;48.062;7.850;2023-02-24T14:22:34;12.80;99.90
4215;DHT22;2121;48.062;7.850;2023-02-24T14:25:09;13.00;99.90
4215;DHT22;2121;48.062;7.850;2023-02-24T14:27:36;12.90;99.90
4215;DHT22;2121;48.062;7.850;2023-02-24T14:30:04;13.10;99.90
4215;DHT22;2121;48.062;7.850;2023-02-24T14:32:32;13.30;99.90
4215;DHT22;2121;48.062;7.850;2023-02-24T14:34:59;13.40;99.90
4215;DHT22;2121;48.062;7.850;2023-02-24T14:37:30;13.20;99.90
4215;DHT22;2121;48.062;7.850;2023-02-24T14:39:58;12.90;99.90
4215;DHT22;2121;48.062;7.850;2023-02-24T14:42:26;12.70;99.90
4215;DHT22;2121;48.062;7.850;2023-02-24T14:44:53;13.00;99.90
4215;DHT22;2121;48.062;7.850;2023-02-24T14:47:26;13.10;99.90
4215;DHT22;2121;48.062;7.850;2023-02-24T14:49:56;12.70;99.90
4215;DHT22;2121;48.062;7.850;2023-02-24T14:55:05;12.40;99.90
4215;DHT22;2121;48.062;7.850;2023-02-24T15:00:55;12.40;99.90
4215;DHT22;2121;48.062;7.850;2023-02-24T15:03:36;12.60;99.90
4215;DHT22;2121;48.062;7.850;2023-02-24T15:06:27;12.60;99.90
4215;DHT22;2121;48.062;7.850;2023-02-24T15:09:14;12.90;99.90
4215;DHT22;2121;48.062;7.850;2023-02-24T15:11:43;13.10;99.90
4215;DHT22;2121;48.062;7.850;2023-02-24T15:14:27;13.20;99.90
4215;DHT22;2121;48.062;7.850;2023-02-24T15:16:55;12.50;99.90
4215;DHT22;2121;48.062;7.850;2023-02-24T15:19:31;12.10;99.90
4215;DHT22;2121;48.062;7.850;2023-02-24T15:22:02;11.90;99.90
4215;DHT22;2121;48.062;7.850;2023-02-24T15:24:31;11.80;99.90
4215;DHT22;2121;48.062;7.850;2023-02-24T15:27:01;11.50;99.90
4215;DHT22;2121;48.062;7.850;2023-02-24T15:30:06;11.40;99.90
4215;DHT22;2121;48.062;7.850;2023-02-24T15:32:46;11.30;99.90
4215;DHT22;2121;48.062;7.850;2023-02-24T15:35:21;11.40;99.90
4215;DHT22;2121;48.062;7.850;2023-02-24T15:37:51;11.30;99.90
4215;DHT22;2121;48.062;7.850;2023-02-24T15:40:21;11.30;99.90
4215;DHT22;2121;48.062;7.850;2023-02-24T15:42:55;11.40;99.90
4215;DHT22;2121;48.062;7.850;2023-02-24T15:45:27;11.50;99.90
4215;DHT22;2121;48.062;7.850;2023-02-24T15:48:00;11.70;99.90
4215;DHT22;2121;48.062;7.850;2023-02-24T15:50:28;11.80;99.90
4215;DHT22;2121;48.062;7.850;2023-02-24T15:52:57;11.90;99.90
4215;DHT22;2121;48.062;7.850;2023-02-24T15:55:25;11.70;99.90
4215;DHT22;2121;48.062;7.850;2023-02-24T15:58:02;11.50;99.90
4215;DHT22;2121;48.062;7.850;2023-02-24T16:00:28;11.30;99.90
4215;DHT22;2121;48.062;7.850;2023-02-24T16:02:56;11.10;99.90
4215;DHT22;2121;48.062;7.850;2023-02-24T16:05:23;11.10;99.90
4215;DHT22;2121;48.062;7.850;2023-02-24T16:07:49;11.00;99.90
4215;DHT22;2121;48.062;7.850;2023-02-24T16:10:23;10.90;99.90
4215;DHT22;2121;48.062;7.850;2023-02-24T16:12:57;10.80;99.90
4215;DHT22;2121;48.062;7.850;2023-02-24T16:15:27;10.80;99.90
4215;DHT22;2121;48.062;7.850;2023-02-24T16:17:58;10.80;99.90
4215;DHT22;2121;48.062;7.850;2023-02-24T16:20:28;10.70;99.90
4215;DHT22;2121;48.062;7.850;2023-02-24T16:23:02;10.60;99.90
4215;DHT22;2121;48.062;7.850;2023-02-24T16:25:34;10.60;99.90
4215;DHT22;2121;48.062;7.850;2023-02-24T16:28:02;10.60;99.90
4215;DHT22;2121;48.062;7.850;2023-02-24T16:30:29;10.70;99.90
4215;DHT22;2121;48.062;7.850;2023-02-24T16:32:59;10.80;99.90
4215;DHT22;2121;48.062;7.850;2023-02-24T16:35:26;10.80;99.90
4215;DHT22;2121;48.062;7.850;2023-02-24T16:37:53;10.80;99.90
4215;DHT22;2121;48.062;7.850;2023-02-24T16:40:24;10.70;99.90
4215;DHT22;2121;48.062;7.850;2023-02-24T16:42:52;10.60;99.90
4215;DHT22;2121;48.062;7.850;2023-02-24T16:45:19;10.60;99.90
4215;DHT22;2121;48.062;7.850;2023-02-24T16:47:55;10.50;99.90
4215;DHT22;2121;48.062;7.850;2023-02-24T16:50:28;10.50;99.90
4215;DHT22;2121;48.062;7.850;2023-02-24T16:52:57;10.60;99.90
4215;DHT22;2121;48.062;7.850;2023-02-24T16:55:23;10.60;99.90
4215;DHT22;2121;48.062;7.850;2023-02-24T16:57:49;10.50;99.90
4215;DHT22;2121;48.062;7.850;2023-02-24T17:00:16;10.40;99.90
4215;DHT22;2121;48.062;7.850;2023-02-24T17:02:45;10.30;99.90
4215;DHT22;2121;48.062;7.850;2023-02-24T17:05:22;10.20;99.90
4215;DHT22;2121;48.062;7.850;2023-02-24T17:07:51;10.10;99.90
4215;DHT22;2121;48.062;7.850;2023-02-24T17:10:19;10.10;99.90
4215;DHT22;2121;48.062;7.850;2023-02-24T17:12:46;10.10;99.90
4215;DHT22;2121;48.062;7.850;2023-02-24T17:15:18;10.10;99.90
4215;DHT22;2121;48.062;7.850;2023-02-24T17:17:45;10.10;99.90
4215;DHT22;2121;48.062;7.850;2023-02-24T17:20:13;10.10;99.90
4215;DHT22;2121;48.062;7.850;2023-02-24T17:22:40;10.00;99.90
4215;DHT22;2121;48.062;7.850;2023-02-24T17:25:07;9.90;99.90
4215;DHT22;2121;48.062;7.850;2023-02-24T17:27:35;9.80;99.90
4215;DHT22;2121;48.062;7.850;2023-02-24T17:30:01;9.80;99.90
4215;DHT22;2121;48.062;7.850;2023-02-24T17:32:28;9.90;99.90
4215;DHT22;2121;48.062;7.850;2023-02-24T17:34:54;9.90;99.90
4215;DHT22;2121;48.062;7.850;2023-02-24T17:37:20;9.90;99.90
4215;DHT22;2121;48.062;7.850;2023-02-24T17:39:46;9.90;99.90
4215;DHT22;2121;48.062;7.850;2023-02-24T17:42:11;10.00;99.90
4215;DHT22;2121;48.062;7.850;2023-02-24T17:44:37;10.00;99.90
4215;DHT22;2121;48.062;7.850;2023-02-24T17:47:03;10.00;99.90
4215;DHT22;2121;48.062;7.850;2023-02-24T17:49:31;10.10;99.90
4215;DHT22;2121;48.062;7.850;2023-02-24T17:51:56;10.10;99.90
4215;DHT22;2121;48.062;7.850;2023-02-24T17:54:22;10.10;99.90
4215;DHT22;2121;48.062;7.850;2023-02-24T17:56:48;10.00;99.90
4215;DHT22;2121;48.062;7.850;2023-02-24T17:59:14;9.90;99.90
4215;DHT22;2121;48.062;7.850;2023-02-24T18:01:39;9.80;99.90
4215;DHT22;2121;48.062;7.850;2023-02-24T18:04:05;9.70;99.90
4215;DHT22;2121;48.062;7.850;2023-02-24T18:06:31;9.60;99.90
4215;DHT22;2121;48.062;7.850;2023-02-24T18:08:57;9.30;99.90
4215;DHT22;2121;48.062;7.850;2023-02-24T18:11:23;9.00;99.90
4215;DHT22;2121;48.062;7.850;2023-02-24T18:13:48;8.90;99.90
4215;DHT22;2121;48.062;7.850;2023-02-24T18:16:17;8.80;99.90
4215;DHT22;2121;48.062;7.850;2023-02-24T18:18:43;8.70;99.90
4215;DHT22;2121;48.062;7.850;2023-02-24T18:21:08;8.70;99.90
4215;DHT22;2121;48.062;7.850;2023-02-24T18:23:35;8.70;99.90
4215;DHT22;2121;48.062;7.850;2023-02-24T18:26:06;8.60;99.90
4215;DHT22;2121;48.062;7.850;2023-02-24T18:28:33;8.60;99.90
4215;DHT22;2121;48.062;7.850;2023-02-24T18:30:59;8.60;99.90
4215;DHT22;2121;48.062;7.850;2023-02-24T18:33:27;8.70;99.90
4215;DHT22;2121;48.062;7.850;2023-02-24T18:35:58;8.70;99.90
4215;DHT22;2121;48.062;7.850;2023-02-24T18:38:24;8.70;99.90
4215;DHT22;2121;48.062;7.850;2023-02-24T18:41:05;8.60;99.90
4215;DHT22;2121;48.062;7.850;2023-02-24T18:43:33;8.70;99.90
4215;DHT22;2121;48.062;7.850;2023-02-24T18:46:02;8.80;99.90
4215;DHT22;2121;48.062;7.850;2023-02-24T18:48:30;8.70;99.90
4215;DHT22;2121;48.062;7.850;2023-02-24T18:50:58;8.70;99.90
4215;DHT22;2121;48.062;7.850;2023-02-24T18:53:27;8.70;99.90
4215;DHT22;2121;48.062;7.850;2023-02-24T18:55:59;8.80;99.90
4215;DHT22;2121;48.062;7.850;2023-02-24T18:58:27;8.80;99.90
4215;DHT22;2121;48.062;7.850;2023-02-24T19:00:53;8.70;99.90